Terminal Aerodrome Forecast
Issued by NWS

Home | Current Version | Previous Version | Text Only | Print | Product List | Glossary On
Versions: 1 2 3 4 5 6 7 8 9 10 11 12 13
410
FTUS41 KGYX 241120
TAFHIE
TAF
KHIE 241120Z 2412/2512 12004KT P6SM OVC050
     FM241500 13005KT 4SM -RA OVC025
     FM250100 11005KT 4SM -RA OVC003
     FM250300 11005KT 0SM FG OVC001
     FM251100 00000KT P6SM OVC003=

USA.gov is the U.S. government's official web portal to all federal, state and local government web resources and services.